createdAt,value
2023-02-28T00:00:52.065Z,4.47
2023-02-28T00:05:44.410Z,5.15
2023-02-28T00:10:36.982Z,4.93
2023-02-28T00:15:29.241Z,5.07
2023-02-28T00:20:21.470Z,4.40
2023-02-28T00:25:15.793Z,3.80
2023-02-28T00:30:11.718Z,4.75
2023-02-28T00:35:04.607Z,5.30
2023-02-28T00:39:56.730Z,4.03
2023-02-28T00:44:48.984Z,4.87
2023-02-28T00:49:41.052Z,3.50
2023-02-28T00:54:34.985Z,5.50
2023-02-28T00:59:27.074Z,4.13
2023-02-28T01:04:19.295Z,6.13
2023-02-28T01:09:12.249Z,5.67
2023-02-28T01:18:57.089Z,4.47
2023-02-28T01:23:49.366Z,4.77
2023-02-28T01:28:41.881Z,6.00
2023-02-28T01:33:33.941Z,4.13
2023-02-28T01:38:25.708Z,4.07
2023-02-28T01:43:24.495Z,5.40
2023-02-28T01:48:16.878Z,6.78
2023-02-28T01:53:14.949Z,4.88
2023-02-28T01:58:08.145Z,4.65
2023-02-28T02:03:02.719Z,4.50
2023-02-28T02:07:57.488Z,4.60
2023-02-28T02:13:13.501Z,3.90
2023-02-28T02:18:37.860Z,3.78
2023-02-28T02:23:44.929Z,4.57
2023-02-28T02:28:55.863Z,4.28
2023-02-28T02:34:25.916Z,4.45
2023-02-28T02:39:30.828Z,3.80
2023-02-28T02:44:27.246Z,3.97
2023-02-28T02:49:36.204Z,4.50
2023-02-28T02:54:30.446Z,4.80
2023-02-28T02:59:23.525Z,5.10
2023-02-28T03:04:20.452Z,3.80
2023-02-28T03:09:12.638Z,3.53
2023-02-28T03:14:22.762Z,4.20
2023-02-28T03:19:33.805Z,3.78
2023-02-28T03:24:52.965Z,6.32
2023-02-28T03:29:51.626Z,5.05
2023-02-28T03:35:11.236Z,3.78
2023-02-28T03:40:13.970Z,3.97
2023-02-28T03:45:12.133Z,4.50
2023-02-28T03:50:11.840Z,3.95
2023-02-28T03:55:08.645Z,4.13
2023-02-28T04:00:29.520Z,4.72
2023-02-28T04:05:22.573Z,6.35
2023-02-28T04:10:14.855Z,5.18
2023-02-28T04:15:07.499Z,4.18
2023-02-28T04:19:59.372Z,5.13
2023-02-28T04:24:51.229Z,3.80
2023-02-28T04:29:45.567Z,3.80
2023-02-28T04:34:37.436Z,3.42
2023-02-28T04:39:29.537Z,4.90
2023-02-28T04:44:21.550Z,3.50
2023-02-28T04:49:14.192Z,4.37
2023-02-28T04:54:06.112Z,3.38
2023-02-28T04:58:58.588Z,4.00
2023-02-28T05:08:43.022Z,4.10
2023-02-28T05:13:35.854Z,4.23
2023-02-28T05:18:27.886Z,5.13
2023-02-28T05:23:21.166Z,4.10
2023-02-28T05:28:13.012Z,3.53
2023-02-28T05:33:04.806Z,2.88
2023-02-28T05:37:56.836Z,3.45
2023-02-28T05:42:48.756Z,4.37
2023-02-28T05:47:40.493Z,4.78
2023-02-28T05:52:32.701Z,3.92
2023-02-28T05:57:25.069Z,3.50
2023-02-28T06:02:18.519Z,3.58
2023-02-28T06:07:10.782Z,4.57
2023-02-28T06:12:08.278Z,3.63
2023-02-28T06:17:01.236Z,4.05
2023-02-28T06:21:55.000Z,4.00
2023-02-28T06:26:46.909Z,3.67
2023-02-28T06:31:39.686Z,4.07
2023-02-28T06:41:25.392Z,3.90
2023-02-28T06:46:17.630Z,4.07
2023-02-28T06:51:28.470Z,4.03
2023-02-28T06:56:24.451Z,3.95
2023-02-28T07:01:16.430Z,4.07
2023-02-28T07:06:08.506Z,3.97
2023-02-28T07:11:00.374Z,4.30
2023-02-28T07:16:03.056Z,4.80
2023-02-28T07:20:55.031Z,3.80
2023-02-28T07:25:46.869Z,3.45
2023-02-28T07:30:38.787Z,4.80
2023-02-28T07:35:31.230Z,3.80
2023-02-28T07:40:23.256Z,4.10
2023-02-28T07:45:15.576Z,3.93
2023-02-28T07:50:09.096Z,3.35
2023-02-28T07:55:01.065Z,4.20
2023-02-28T07:59:52.961Z,5.17
2023-02-28T08:04:45.413Z,4.30
2023-02-28T08:09:37.419Z,4.65
2023-02-28T08:14:29.636Z,4.37
2023-02-28T08:19:21.505Z,4.90
2023-02-28T08:24:13.458Z,4.13
2023-02-28T08:29:05.387Z,4.75
2023-02-28T08:33:59.875Z,3.73
2023-02-28T08:38:51.826Z,4.18
2023-02-28T08:43:44.999Z,4.18
2023-02-28T08:48:38.904Z,3.30
2023-02-28T08:53:31.623Z,3.65
2023-02-28T08:58:23.454Z,3.85
2023-02-28T09:03:15.305Z,4.75
2023-02-28T09:08:07.397Z,4.72
2023-02-28T09:12:59.284Z,3.73
2023-02-28T09:17:51.226Z,4.93
2023-02-28T09:22:43.274Z,3.53
2023-02-28T09:27:35.098Z,4.23
2023-02-28T09:32:27.105Z,4.00
2023-02-28T09:37:19.132Z,3.80
2023-02-28T09:42:34.816Z,4.17
2023-02-28T09:47:42.651Z,3.50
2023-02-28T09:52:35.163Z,3.95
2023-02-28T09:57:42.038Z,3.13
2023-02-28T10:02:47.618Z,6.05
2023-02-28T10:08:02.968Z,4.03
2023-02-28T10:12:57.203Z,4.57
2023-02-28T10:17:55.583Z,4.25
2023-02-28T10:23:11.141Z,4.85
2023-02-28T10:28:10.705Z,4.25
2023-02-28T10:33:02.726Z,4.57
2023-02-28T10:37:57.408Z,5.37
2023-02-28T10:43:05.848Z,4.22
2023-02-28T10:48:06.821Z,3.90
2023-02-28T10:53:59.609Z,4.15
2023-02-28T11:03:51.322Z,3.63
2023-02-28T11:08:54.748Z,4.30
2023-02-28T11:13:48.128Z,3.60
2023-02-28T11:18:46.243Z,4.03
2023-02-28T11:23:41.524Z,4.45
2023-02-28T11:28:38.058Z,4.30
2023-02-28T11:33:32.066Z,3.97
2023-02-28T11:38:23.952Z,4.25
2023-02-28T11:43:36.928Z,4.97
2023-02-28T11:48:38.756Z,4.60
2023-02-28T11:53:55.864Z,4.30
2023-02-28T11:59:25.877Z,4.60
2023-02-28T12:04:57.011Z,3.97
2023-02-28T12:10:01.184Z,3.90
2023-02-28T12:15:15.222Z,4.90
2023-02-28T12:20:15.480Z,3.70
2023-02-28T12:25:07.372Z,4.47
2023-02-28T12:30:05.958Z,4.70
2023-02-28T12:35:07.587Z,4.60
2023-02-28T12:40:07.433Z,3.97
2023-02-28T12:45:11.338Z,4.60
2023-02-28T12:50:12.739Z,3.90
2023-02-28T12:55:16.837Z,4.22
2023-02-28T13:00:16.021Z,4.22
2023-02-28T13:05:25.989Z,4.43
2023-02-28T13:10:19.975Z,3.70
2023-02-28T13:15:23.201Z,4.63
2023-02-28T13:20:18.570Z,4.53
2023-02-28T13:25:35.387Z,4.80
2023-02-28T13:31:01.413Z,5.22
2023-02-28T13:36:11.580Z,5.50
2023-02-28T13:41:37.360Z,5.03
2023-02-28T13:46:29.909Z,4.35
2023-02-28T13:51:40.783Z,4.10
2023-02-28T13:56:47.210Z,4.63
2023-02-28T14:01:57.711Z,4.30
2023-02-28T14:06:56.786Z,4.93
2023-02-28T14:11:48.742Z,4.07
2023-02-28T14:16:48.919Z,5.40
2023-02-28T14:22:08.182Z,4.75
2023-02-28T14:27:08.158Z,4.88
2023-02-28T14:32:07.341Z,4.40
2023-02-28T14:37:01.703Z,5.05
2023-02-28T14:41:53.616Z,5.25
2023-02-28T14:46:46.999Z,4.63
2023-02-28T14:51:38.913Z,5.40
2023-02-28T14:56:39.040Z,4.82
2023-02-28T15:01:33.142Z,4.68
2023-02-28T15:06:26.825Z,4.60
2023-02-28T15:11:23.440Z,5.57
2023-02-28T15:16:19.104Z,4.70
2023-02-28T15:21:18.964Z,4.88
2023-02-28T15:26:16.871Z,4.85
2023-02-28T15:31:34.109Z,5.18
2023-02-28T15:36:34.465Z,5.68
2023-02-28T15:41:32.556Z,5.22
2023-02-28T15:46:24.453Z,4.70
2023-02-28T15:51:20.093Z,5.18
2023-02-28T15:56:28.129Z,5.80
2023-02-28T16:01:26.051Z,4.30
2023-02-28T16:06:17.851Z,5.90
2023-02-28T16:11:11.584Z,4.20
2023-02-28T16:16:03.567Z,5.50
2023-02-28T16:20:55.475Z,6.10
2023-02-28T16:25:47.576Z,4.82
2023-02-28T16:30:39.607Z,4.57
2023-02-28T16:35:31.735Z,4.67
2023-02-28T16:40:26.536Z,5.27
2023-02-28T16:45:26.357Z,5.00
2023-02-28T16:50:25.155Z,4.65
2023-02-28T16:55:17.228Z,4.95
2023-02-28T17:00:12.696Z,4.77
2023-02-28T17:05:04.969Z,4.93
2023-02-28T17:09:57.128Z,5.70
2023-02-28T17:14:49.074Z,5.23
2023-02-28T17:19:44.230Z,5.22
2023-02-28T17:24:36.051Z,5.18
2023-02-28T17:29:28.247Z,5.82
2023-02-28T17:34:20.741Z,5.93
2023-02-28T17:39:15.104Z,5.20
2023-02-28T17:44:07.020Z,5.32
2023-02-28T17:48:59.093Z,5.93
2023-02-28T17:53:51.386Z,5.83
2023-02-28T17:58:43.356Z,5.20
2023-02-28T18:03:35.252Z,6.10
2023-02-28T18:08:27.117Z,5.95
2023-02-28T18:13:19.482Z,4.88
2023-02-28T18:18:11.538Z,6.00
2023-02-28T18:23:03.801Z,6.10
2023-02-28T18:27:59.044Z,6.07
2023-02-28T18:32:51.024Z,6.57
2023-02-28T18:37:42.810Z,5.60
2023-02-28T18:42:34.648Z,5.55
2023-02-28T18:47:26.916Z,5.72
2023-02-28T18:52:18.904Z,5.13
2023-02-28T18:57:10.788Z,6.73
2023-02-28T19:02:02.636Z,6.63
2023-02-28T19:06:54.456Z,5.50
2023-02-28T19:11:46.323Z,6.18
2023-02-28T19:16:38.292Z,6.60
2023-02-28T19:21:30.280Z,8.40
2023-02-28T19:26:24.936Z,6.18
2023-02-28T19:31:20.124Z,6.13
2023-02-28T19:36:13.144Z,6.82
2023-02-28T19:45:58.984Z,6.10
2023-02-28T19:50:51.576Z,7.07
2023-02-28T19:55:43.542Z,5.78
2023-02-28T20:00:35.573Z,6.32
2023-02-28T20:05:28.898Z,6.17
2023-02-28T20:10:21.460Z,6.88
2023-02-28T20:15:13.385Z,5.88
2023-02-28T20:20:05.842Z,6.22
2023-02-28T20:24:57.708Z,5.88
2023-02-28T20:29:49.834Z,5.82
2023-02-28T20:34:41.777Z,7.13
2023-02-28T20:39:33.802Z,6.53
2023-02-28T20:44:25.743Z,6.40
2023-02-28T20:49:17.650Z,6.23
2023-02-28T20:54:11.353Z,7.38
2023-02-28T20:59:03.669Z,6.72
2023-02-28T21:04:01.047Z,7.10
2023-02-28T21:08:53.491Z,6.20
2023-02-28T21:13:46.188Z,6.82
2023-02-28T21:18:38.547Z,6.07
2023-02-28T21:23:31.038Z,6.05
2023-02-28T21:28:22.966Z,6.82
2023-02-28T21:33:14.783Z,6.00
2023-02-28T21:38:06.730Z,6.82
2023-02-28T21:42:58.563Z,6.88
2023-02-28T21:47:50.390Z,6.05
2023-02-28T21:52:42.544Z,6.80
2023-02-28T21:57:36.156Z,7.53
2023-02-28T22:02:30.214Z,6.25
2023-02-28T22:07:23.659Z,6.95
2023-02-28T22:12:15.478Z,7.93
2023-02-28T22:17:07.395Z,7.15
2023-02-28T22:21:59.264Z,6.95
2023-02-28T22:26:52.136Z,7.93
2023-02-28T22:31:44.195Z,6.45
2023-02-28T22:36:36.519Z,7.53
2023-02-28T22:41:29.332Z,6.90
2023-02-28T22:46:22.270Z,6.47
2023-02-28T22:56:08.694Z,6.70
2023-02-28T23:01:12.000Z,7.35
2023-02-28T23:06:17.671Z,6.80
2023-02-28T23:11:09.912Z,7.30
2023-02-28T23:16:05.432Z,6.70
2023-02-28T23:20:57.621Z,6.20
2023-02-28T23:25:49.582Z,7.07
2023-02-28T23:30:41.931Z,6.80
2023-02-28T23:35:34.215Z,8.25
2023-02-28T23:40:26.309Z,7.13
2023-02-28T23:45:19.447Z,6.13
2023-02-28T23:50:11.710Z,8.30
2023-02-28T23:55:03.751Z,7.50
2023-02-28T23:59:56.136Z,6.40
